createdAt,value
2023-11-09T00:01:34.222Z,1.60
2023-11-09T00:04:03.176Z,1.40
2023-11-09T00:06:31.094Z,1.20
2023-11-09T00:08:58.994Z,1.83
2023-11-09T00:11:26.935Z,1.50
2023-11-09T00:13:56.140Z,1.60
2023-11-09T00:16:24.220Z,2.05
2023-11-09T00:18:53.740Z,2.42
2023-11-09T00:21:21.660Z,1.30
2023-11-09T00:23:49.542Z,1.42
2023-11-09T00:26:17.537Z,1.48
2023-11-09T00:28:47.529Z,1.45
2023-11-09T00:31:16.744Z,2.40
2023-11-09T00:33:44.837Z,1.67
2023-11-09T00:36:12.705Z,1.50
2023-11-09T00:38:40.552Z,1.65
2023-11-09T00:41:08.409Z,1.83
2023-11-09T00:43:36.271Z,1.85
2023-11-09T00:46:04.342Z,2.20
2023-11-09T00:48:33.617Z,1.85
2023-11-09T00:51:01.856Z,1.30
2023-11-09T00:53:29.700Z,1.95
2023-11-09T00:55:57.581Z,1.60
2023-11-09T00:58:25.503Z,1.50
2023-11-09T01:00:53.394Z,1.95
2023-11-09T01:03:22.189Z,1.40
2023-11-09T01:05:51.656Z,2.00
2023-11-09T01:08:19.507Z,1.55
2023-11-09T01:10:48.149Z,1.52
2023-11-09T01:13:16.092Z,1.67
2023-11-09T01:15:43.986Z,1.58
2023-11-09T01:18:12.651Z,1.55
2023-11-09T01:20:40.728Z,1.25
2023-11-09T01:23:12.800Z,1.70
2023-11-09T01:25:40.719Z,1.30
2023-11-09T01:28:08.896Z,1.40
2023-11-09T01:30:36.828Z,2.00
2023-11-09T01:33:06.405Z,1.67
2023-11-09T01:35:34.401Z,1.48
2023-11-09T01:38:02.291Z,1.70
2023-11-09T01:40:31.561Z,1.63
2023-11-09T01:42:59.613Z,1.65
2023-11-09T01:45:27.563Z,1.30
2023-11-09T01:47:55.785Z,1.70
2023-11-09T01:50:23.823Z,1.77
2023-11-09T01:52:51.851Z,1.88
2023-11-09T01:55:22.312Z,2.00
2023-11-09T01:57:51.545Z,1.60
2023-11-09T02:00:19.760Z,1.70
2023-11-09T02:02:50.028Z,1.65
2023-11-09T02:05:18.969Z,2.40
2023-11-09T02:07:47.079Z,1.92
2023-11-09T02:10:15.636Z,1.27
2023-11-09T02:12:43.668Z,2.40
2023-11-09T02:15:13.541Z,1.90
2023-11-09T02:17:41.950Z,2.00
2023-11-09T02:20:14.544Z,1.90
2023-11-09T02:22:45.507Z,1.80
2023-11-09T02:25:15.468Z,2.13
2023-11-09T02:27:43.438Z,1.60
2023-11-09T02:30:12.604Z,1.95
2023-11-09T02:32:40.740Z,2.20
2023-11-09T02:35:09.677Z,1.77
2023-11-09T02:37:37.815Z,1.70
2023-11-09T02:40:07.339Z,2.38
2023-11-09T02:42:36.627Z,2.08
2023-11-09T02:45:04.853Z,1.83
2023-11-09T02:47:32.774Z,1.60
2023-11-09T02:50:00.699Z,1.90
2023-11-09T02:52:28.594Z,2.40
2023-11-09T02:55:00.540Z,2.42
2023-11-09T02:57:30.924Z,2.15
2023-11-09T03:00:00.819Z,1.75
2023-11-09T03:02:29.042Z,1.92
2023-11-09T03:04:57.076Z,1.60
2023-11-09T03:07:26.595Z,1.60
2023-11-09T03:09:55.794Z,2.17
2023-11-09T03:12:23.708Z,1.63
2023-11-09T03:14:51.998Z,1.90
2023-11-09T03:17:21.667Z,2.42
2023-11-09T03:19:49.584Z,1.52
2023-11-09T03:22:17.571Z,1.77
2023-11-09T03:24:45.898Z,2.10
2023-11-09T03:27:13.766Z,1.70
2023-11-09T03:29:41.642Z,1.90
2023-11-09T03:32:11.091Z,1.73
2023-11-09T03:34:40.487Z,1.73
2023-11-09T03:37:08.428Z,1.77
2023-11-09T03:39:36.873Z,1.80
2023-11-09T03:42:05.450Z,1.92
2023-11-09T03:44:39.691Z,1.75
2023-11-09T03:47:07.965Z,2.08
2023-11-09T03:49:42.097Z,1.90
2023-11-09T03:52:10.852Z,1.80
2023-11-09T03:54:38.931Z,2.20
2023-11-09T03:57:06.865Z,1.65
2023-11-09T03:59:34.781Z,2.42
2023-11-09T04:02:02.883Z,2.30
2023-11-09T04:04:30.923Z,1.65
2023-11-09T04:07:00.757Z,2.28
2023-11-09T04:09:28.683Z,2.08
2023-11-09T04:11:56.572Z,2.08
2023-11-09T04:14:24.678Z,1.73
2023-11-09T04:16:52.522Z,1.60
2023-11-09T04:19:21.196Z,2.03
2023-11-09T04:21:50.324Z,1.63
2023-11-09T04:24:19.610Z,1.13
2023-11-09T04:26:47.497Z,1.88
2023-11-09T04:29:16.503Z,1.52
2023-11-09T04:31:48.511Z,2.22
2023-11-09T04:34:16.656Z,2.05
2023-11-09T04:36:45.278Z,1.58
2023-11-09T04:39:15.216Z,2.17
2023-11-09T04:41:45.043Z,1.90
2023-11-09T04:44:14.095Z,1.73
2023-11-09T04:46:42.665Z,2.40
2023-11-09T04:49:10.738Z,1.92
2023-11-09T04:51:38.865Z,2.10
2023-11-09T04:54:18.117Z,2.35
2023-11-09T04:57:04.812Z,1.90
2023-11-09T04:59:50.231Z,2.33
2023-11-09T05:02:35.765Z,1.45
2023-11-09T05:05:21.476Z,1.45
2023-11-09T05:07:49.354Z,1.90
2023-11-09T05:10:17.701Z,2.50
2023-11-09T05:12:46.949Z,2.92
2023-11-09T05:15:15.905Z,2.22
2023-11-09T05:17:44.016Z,2.03
2023-11-09T05:20:14.474Z,1.60
2023-11-09T05:22:42.374Z,1.80
2023-11-09T05:25:12.239Z,1.95
2023-11-09T05:27:40.147Z,1.73
2023-11-09T05:30:12.637Z,1.55
2023-11-09T05:32:41.392Z,1.48
2023-11-09T05:35:11.876Z,2.03
2023-11-09T05:37:40.178Z,1.70
2023-11-09T05:40:11.054Z,2.15
2023-11-09T05:42:43.218Z,1.40
2023-11-09T05:45:12.915Z,1.52
2023-11-09T05:47:41.254Z,1.65
2023-11-09T05:50:10.129Z,1.60
2023-11-09T05:52:38.099Z,2.17
2023-11-09T05:55:06.980Z,2.33
2023-11-09T05:57:35.386Z,2.00
2023-11-09T06:00:04.550Z,1.90
2023-11-09T06:02:33.922Z,1.70
2023-11-09T06:05:01.902Z,2.20
2023-11-09T06:07:31.007Z,2.95
2023-11-09T06:09:59.055Z,1.55
2023-11-09T06:12:27.011Z,2.08
2023-11-09T06:14:55.396Z,1.70
2023-11-09T06:17:24.028Z,1.98
2023-11-09T06:19:53.243Z,2.10
2023-11-09T06:22:21.525Z,1.85
2023-11-09T06:24:49.395Z,2.60
2023-11-09T06:27:18.750Z,1.85
2023-11-09T06:29:48.098Z,2.03
2023-11-09T06:32:16.001Z,2.20
2023-11-09T06:34:44.627Z,2.33
2023-11-09T06:37:13.890Z,2.22
2023-11-09T06:39:47.357Z,1.85
2023-11-09T06:42:17.104Z,2.03
2023-11-09T06:44:46.404Z,1.77
2023-11-09T06:47:14.908Z,1.90
2023-11-09T06:49:42.848Z,1.90
2023-11-09T06:52:11.005Z,1.90
2023-11-09T06:54:41.756Z,1.60
2023-11-09T06:57:12.351Z,1.80
2023-11-09T06:59:40.703Z,2.10
2023-11-09T07:02:09.202Z,2.35
2023-11-09T07:04:37.143Z,2.30
2023-11-09T07:07:05.627Z,1.90
2023-11-09T07:09:33.600Z,2.15
2023-11-09T07:12:02.836Z,1.65
2023-11-09T07:14:32.159Z,2.17
2023-11-09T07:17:00.019Z,3.42
2023-11-09T07:19:27.987Z,2.70
2023-11-09T07:21:55.872Z,3.20
2023-11-09T07:24:25.219Z,3.22
2023-11-09T07:26:54.273Z,3.00
2023-11-09T07:29:23.474Z,2.90
2023-11-09T07:31:51.342Z,1.90
2023-11-09T07:34:19.229Z,1.85
2023-11-09T07:36:47.125Z,1.20
2023-11-09T07:39:14.996Z,2.45
2023-11-09T07:41:43.949Z,2.08
2023-11-09T07:44:11.839Z,2.13
2023-11-09T07:46:41.059Z,2.50
2023-11-09T07:49:11.474Z,1.95
2023-11-09T07:51:39.878Z,1.70
2023-11-09T07:54:09.589Z,1.70
2023-11-09T07:56:37.484Z,1.98
2023-11-09T07:59:05.394Z,1.80
2023-11-09T08:01:33.380Z,1.40
2023-11-09T08:04:02.691Z,1.65
2023-11-09T08:06:31.447Z,2.13
2023-11-09T08:09:00.851Z,1.60
2023-11-09T08:11:30.146Z,1.83
2023-11-09T08:13:58.959Z,2.67
2023-11-09T08:16:27.187Z,1.85
2023-11-09T08:18:58.660Z,2.10
2023-11-09T08:21:29.755Z,2.28
2023-11-09T08:23:57.755Z,1.75
2023-11-09T08:26:26.686Z,2.38
2023-11-09T08:28:55.017Z,1.77
2023-11-09T08:31:23.164Z,2.08
2023-11-09T08:33:51.973Z,2.10
2023-11-09T08:36:19.948Z,1.98
2023-11-09T08:38:49.485Z,2.20
2023-11-09T08:41:17.414Z,2.05
2023-11-09T08:43:46.018Z,2.10
2023-11-09T08:46:14.919Z,1.48
2023-11-09T08:48:43.161Z,1.58
2023-11-09T08:51:15.037Z,2.13
2023-11-09T08:53:43.276Z,1.98
2023-11-09T08:56:12.961Z,1.55
2023-11-09T08:58:41.662Z,1.50
2023-11-09T09:01:17.828Z,1.58
2023-11-09T09:03:47.010Z,1.70
2023-11-09T09:06:17.162Z,1.17
2023-11-09T09:08:46.662Z,1.52
2023-11-09T09:11:18.859Z,1.30
2023-11-09T09:13:47.172Z,1.20
2023-11-09T09:16:17.057Z,1.52
2023-11-09T09:18:47.408Z,1.83
2023-11-09T09:21:16.578Z,1.70
2023-11-09T09:23:44.506Z,1.63
2023-11-09T09:26:15.691Z,1.80
2023-11-09T09:28:49.139Z,1.48
2023-11-09T09:31:19.593Z,1.58
2023-11-09T09:33:57.905Z,1.10
2023-11-09T09:36:26.010Z,1.63
2023-11-09T09:38:53.910Z,1.40
2023-11-09T09:41:29.404Z,1.30
2023-11-09T09:44:01.037Z,1.95
2023-11-09T09:46:31.169Z,1.40
2023-11-09T09:48:59.057Z,1.30
2023-11-09T09:51:27.238Z,1.42
2023-11-09T09:53:55.694Z,1.52
2023-11-09T09:56:24.180Z,1.50
2023-11-09T09:58:53.146Z,1.77
2023-11-09T10:01:22.902Z,1.10
2023-11-09T10:03:53.946Z,1.73
2023-11-09T10:06:22.844Z,1.50
2023-11-09T10:08:50.753Z,1.65
2023-11-09T10:11:18.969Z,1.33
2023-11-09T10:13:47.798Z,1.23
2023-11-09T10:16:16.361Z,1.40
2023-11-09T10:18:45.621Z,1.60
2023-11-09T10:21:14.870Z,1.67
2023-11-09T10:23:42.772Z,1.25
2023-11-09T10:26:13.121Z,1.10
2023-11-09T10:28:41.376Z,1.52
2023-11-09T10:31:11.704Z,1.20
2023-11-09T10:33:40.761Z,1.20
2023-11-09T10:36:10.976Z,1.40
2023-11-09T10:38:40.898Z,1.00
2023-11-09T10:41:51.274Z,1.30
2023-11-09T10:44:02.396Z,1.10
2023-11-09T10:46:32.975Z,1.02
2023-11-09T10:49:01.107Z,1.17
2023-11-09T10:51:34.319Z,0.80
2023-11-09T10:54:04.309Z,1.25
2023-11-09T10:56:32.870Z,1.15
2023-11-09T10:59:01.681Z,0.93
2023-11-09T11:01:31.735Z,0.95
2023-11-09T11:04:00.963Z,1.30
2023-11-09T11:06:35.554Z,1.35
2023-11-09T11:09:09.291Z,0.90
2023-11-09T11:11:39.256Z,1.60
2023-11-09T11:14:10.688Z,1.15
2023-11-09T11:16:58.746Z,1.13
2023-11-09T11:20:09.465Z,1.00
2023-11-09T11:22:57.259Z,1.63
2023-11-09T11:25:37.475Z,1.38
2023-11-09T11:28:07.908Z,1.30
2023-11-09T11:30:37.811Z,1.10
2023-11-09T11:33:09.372Z,1.30
2023-11-09T11:35:43.847Z,1.70
2023-11-09T11:38:24.648Z,1.13
2023-11-09T11:40:55.760Z,1.52
2023-11-09T11:43:23.808Z,1.10
2023-11-09T11:45:51.959Z,1.75
2023-11-09T11:48:22.431Z,1.50
2023-11-09T11:50:51.236Z,1.55
2023-11-09T11:53:31.045Z,1.45
2023-11-09T11:56:11.209Z,1.52
2023-11-09T11:58:48.661Z,1.20
2023-11-09T12:01:31.376Z,1.40
2023-11-09T12:04:03.970Z,1.30
2023-11-09T12:06:34.443Z,1.20
2023-11-09T12:09:08.965Z,1.60
2023-11-09T12:11:45.355Z,1.30
2023-11-09T12:14:14.041Z,1.50
2023-11-09T12:16:42.276Z,1.48
2023-11-09T12:19:13.282Z,1.55
2023-11-09T12:21:42.237Z,1.42
2023-11-09T12:24:14.632Z,1.70
2023-11-09T12:26:44.143Z,1.65
2023-11-09T12:29:12.579Z,1.48
2023-11-09T12:31:41.347Z,1.50
2023-11-09T12:34:11.863Z,1.40
2023-11-09T12:36:42.616Z,1.17
2023-11-09T12:39:29.510Z,1.27
2023-11-09T12:41:58.114Z,1.33
2023-11-09T12:44:27.699Z,1.58
2023-11-09T12:46:58.440Z,1.25
2023-11-09T12:49:28.410Z,1.40
2023-11-09T12:51:57.788Z,1.45
2023-11-09T12:54:27.104Z,1.20
2023-11-09T12:56:57.732Z,1.30
2023-11-09T12:59:27.103Z,1.10
2023-11-09T13:01:57.570Z,1.23
2023-11-09T13:04:29.397Z,3.67
2023-11-09T13:06:57.953Z,1.40
2023-11-09T13:09:39.533Z,1.30
2023-11-09T13:12:25.971Z,1.15
2023-11-09T13:15:11.845Z,1.42
2023-11-09T13:17:51.501Z,1.30
2023-11-09T13:20:28.796Z,1.48
2023-11-09T13:23:07.775Z,1.70
2023-11-09T13:25:40.089Z,1.10
2023-11-09T13:28:09.727Z,1.00
2023-11-09T13:30:51.877Z,1.33
2023-11-09T13:33:31.614Z,1.40
2023-11-09T13:36:03.803Z,1.00
2023-11-09T13:38:34.699Z,1.10
2023-11-09T13:41:17.442Z,2.00
2023-11-09T13:44:03.242Z,1.83
2023-11-09T13:46:40.076Z,1.48
2023-11-09T13:49:23.696Z,1.58
2023-11-09T13:52:04.785Z,1.08
2023-11-09T13:54:44.604Z,1.30
2023-11-09T13:57:21.217Z,1.35
2023-11-09T13:59:57.805Z,1.55
2023-11-09T14:02:30.512Z,1.30
2023-11-09T14:05:09.005Z,1.10
2023-11-09T14:07:40.835Z,1.08
2023-11-09T14:10:12.946Z,1.15
2023-11-09T14:12:52.137Z,1.15
2023-11-09T14:15:26.548Z,1.10
2023-11-09T14:17:56.040Z,1.30
2023-11-09T14:20:34.593Z,1.30
2023-11-09T14:23:05.979Z,1.20
2023-11-09T14:25:34.637Z,1.02
2023-11-09T14:28:04.413Z,1.20
2023-11-09T14:30:33.396Z,1.52
2023-11-09T14:33:03.031Z,1.00
2023-11-09T14:35:33.102Z,0.85
2023-11-09T14:38:04.669Z,1.17
2023-11-09T14:40:35.463Z,1.05
2023-11-09T14:43:10.310Z,0.93
2023-11-09T14:45:42.424Z,0.88
2023-11-09T14:48:12.115Z,0.73
2023-11-09T14:50:40.647Z,0.90
2023-11-09T14:53:23.392Z,1.00
2023-11-09T14:56:00.012Z,1.35
2023-11-09T14:58:32.839Z,0.70
2023-11-09T15:01:03.545Z,0.75
2023-11-09T15:03:32.906Z,0.57
2023-11-09T15:06:10.065Z,0.68
2023-11-09T15:08:38.585Z,0.68
2023-11-09T15:11:11.051Z,0.63
2023-11-09T15:13:41.790Z,0.52
2023-11-09T15:16:10.248Z,0.90
2023-11-09T15:18:38.334Z,0.73
2023-11-09T15:21:11.082Z,0.90
2023-11-09T15:23:39.173Z,0.70
2023-11-09T15:26:08.027Z,0.70
2023-11-09T15:28:36.126Z,0.60
2023-11-09T15:31:06.454Z,0.93
2023-11-09T15:33:35.858Z,0.70
2023-11-09T15:36:04.906Z,0.88
2023-11-09T15:38:32.942Z,1.15
2023-11-09T15:41:18.012Z,0.80
2023-11-09T15:43:50.336Z,0.88
2023-11-09T15:46:19.782Z,0.63
2023-11-09T15:48:48.289Z,0.70
2023-11-09T15:51:17.464Z,1.15
2023-11-09T15:53:45.542Z,1.60
2023-11-09T15:56:14.379Z,1.35
2023-11-09T15:58:42.858Z,1.00
2023-11-09T16:01:15.080Z,1.30
2023-11-09T16:03:46.137Z,1.05
2023-11-09T16:06:14.295Z,1.23
2023-11-09T16:08:42.177Z,1.27
2023-11-09T16:11:10.959Z,1.10
2023-11-09T16:13:39.190Z,0.90
2023-11-09T16:16:07.279Z,1.63
2023-11-09T16:18:35.201Z,1.10
2023-11-09T16:21:06.595Z,1.35
2023-11-09T16:23:37.279Z,1.30
2023-11-09T16:26:05.714Z,0.95
2023-11-09T16:28:34.862Z,1.40
2023-11-09T16:31:07.689Z,1.42
2023-11-09T16:33:36.412Z,2.22
2023-11-09T16:36:06.553Z,1.40
2023-11-09T16:38:34.557Z,1.52
2023-11-09T16:41:02.589Z,2.00
2023-11-09T16:43:32.857Z,1.98
2023-11-09T16:46:00.961Z,2.40
2023-11-09T16:48:29.331Z,1.65
2023-11-09T16:50:58.138Z,2.10
2023-11-09T16:53:27.364Z,1.25
2023-11-09T16:55:55.300Z,1.13
2023-11-09T16:58:23.254Z,1.02
2023-11-09T17:00:51.114Z,1.50
2023-11-09T17:03:19.659Z,1.52
2023-11-09T17:05:47.568Z,1.50
2023-11-09T17:08:15.502Z,1.10
2023-11-09T17:10:44.782Z,1.08
2023-11-09T17:13:12.656Z,1.25
2023-11-09T17:15:40.519Z,1.40
2023-11-09T17:18:10.951Z,1.70
2023-11-09T17:20:39.945Z,1.15
2023-11-09T17:23:07.894Z,1.35
2023-11-09T17:25:36.064Z,1.33
2023-11-09T17:28:05.785Z,0.95
2023-11-09T17:30:37.881Z,1.00
2023-11-09T17:33:08.298Z,1.30
2023-11-09T17:35:36.698Z,1.05
2023-11-09T17:38:05.390Z,1.23
2023-11-09T17:40:33.356Z,1.88
2023-11-09T17:43:01.333Z,1.05
2023-11-09T17:45:30.689Z,1.13
2023-11-09T17:47:59.149Z,1.00
2023-11-09T17:50:27.581Z,1.15
2023-11-09T17:52:57.026Z,0.90
2023-11-09T17:55:26.412Z,1.35
2023-11-09T17:57:55.164Z,1.00
2023-11-09T18:00:23.483Z,1.60
2023-11-09T18:02:52.758Z,2.00
2023-11-09T18:05:20.801Z,1.00
2023-11-09T18:07:48.758Z,1.75
2023-11-09T18:10:16.723Z,1.10
2023-11-09T18:12:48.826Z,1.02
2023-11-09T18:15:17.508Z,1.23
2023-11-09T18:17:45.824Z,1.60
2023-11-09T18:20:17.787Z,1.55
2023-11-09T18:22:45.929Z,2.03
2023-11-09T18:25:13.814Z,1.60
2023-11-09T18:27:41.818Z,1.52
2023-11-09T18:30:11.939Z,1.33
2023-11-09T18:32:40.022Z,2.00
2023-11-09T18:35:09.104Z,1.40
2023-11-09T18:37:38.470Z,1.20
2023-11-09T18:40:10.039Z,1.40
2023-11-09T18:42:38.005Z,1.40
2023-11-09T18:45:06.865Z,1.58
2023-11-09T18:47:34.913Z,1.05
2023-11-09T18:52:34.024Z,0.95
2023-11-09T18:55:03.383Z,1.15
2023-11-09T18:57:31.333Z,0.70
2023-11-09T18:59:59.240Z,1.15
2023-11-09T19:02:27.228Z,0.70
2023-11-09T19:04:55.202Z,1.48
2023-11-09T19:07:23.669Z,1.38
2023-11-09T19:09:51.992Z,1.77
2023-11-09T19:12:21.302Z,1.23
2023-11-09T19:14:49.350Z,1.00
2023-11-09T19:17:17.249Z,1.50
2023-11-09T19:19:45.131Z,1.40
2023-11-09T19:24:44.186Z,1.02
2023-11-09T19:27:12.858Z,1.33
2023-11-09T19:29:42.427Z,1.02
2023-11-09T19:32:13.099Z,1.88
2023-11-09T19:34:41.445Z,1.45
2023-11-09T19:37:09.579Z,1.05
2023-11-09T19:39:39.315Z,1.27
2023-11-09T19:42:08.338Z,1.20
2023-11-09T19:44:36.316Z,0.98
2023-11-09T19:47:06.161Z,1.00
2023-11-09T19:49:34.189Z,0.90
2023-11-09T19:52:02.187Z,1.13
2023-11-09T19:54:30.373Z,1.15
2023-11-09T19:56:58.377Z,1.75
2023-11-09T19:59:26.413Z,0.98
2023-11-09T20:01:54.314Z,0.80
2023-11-09T20:04:23.744Z,1.02
2023-11-09T20:06:52.192Z,1.05
2023-11-09T20:09:21.875Z,1.00
2023-11-09T20:11:50.049Z,1.05
2023-11-09T20:14:17.953Z,1.23
2023-11-09T20:16:46.166Z,0.93
2023-11-09T20:19:14.119Z,0.90
2023-11-09T20:21:47.106Z,1.05
2023-11-09T20:24:15.288Z,0.80
2023-11-09T20:26:43.281Z,1.17
2023-11-09T20:29:11.284Z,1.00
2023-11-09T20:31:39.234Z,0.93
2023-11-09T20:34:07.460Z,1.10
2023-11-09T20:36:35.494Z,1.58
2023-11-09T20:39:07.419Z,1.52
2023-11-09T20:41:35.411Z,1.38
2023-11-09T20:44:04.176Z,1.33
2023-11-09T20:46:33.132Z,1.05
2023-11-09T20:49:02.351Z,1.25
2023-11-09T20:51:30.543Z,1.00
2023-11-09T20:54:00.468Z,1.25
2023-11-09T20:56:29.786Z,0.82
2023-11-09T20:58:58.431Z,0.98
2023-11-09T21:01:28.102Z,1.10
2023-11-09T21:03:56.754Z,0.85
2023-11-09T21:06:25.449Z,1.05
2023-11-09T21:08:54.533Z,1.20
2023-11-09T21:11:22.548Z,0.82
2023-11-09T21:13:53.635Z,1.20
2023-11-09T21:16:21.546Z,1.08
2023-11-09T21:18:49.524Z,1.10
2023-11-09T21:21:17.446Z,1.30
2023-11-09T21:23:45.652Z,1.40
2023-11-09T21:26:14.348Z,1.08
2023-11-09T21:28:42.365Z,1.17
2023-11-09T21:31:11.705Z,1.30
2023-11-09T21:33:41.771Z,0.90
2023-11-09T21:36:14.789Z,1.25
2023-11-09T21:38:43.018Z,1.15
2023-11-09T21:41:10.917Z,1.40
2023-11-09T21:43:38.855Z,1.00
2023-11-09T21:46:09.456Z,1.60
2023-11-09T21:48:39.641Z,1.70
2023-11-09T21:51:07.840Z,1.20
2023-11-09T21:53:35.862Z,0.95
2023-11-09T21:56:06.509Z,1.00
2023-11-09T21:58:35.418Z,1.45
2023-11-09T22:01:03.345Z,1.23
2023-11-09T22:03:31.317Z,0.95
2023-11-09T22:06:00.678Z,1.30
2023-11-09T22:08:28.570Z,0.95
2023-11-09T22:10:56.758Z,1.00
2023-11-09T22:13:24.787Z,0.95
2023-11-09T22:15:54.793Z,1.10
2023-11-09T22:18:23.834Z,1.00
2023-11-09T22:20:51.997Z,1.05
2023-11-09T22:23:21.193Z,1.08
2023-11-09T22:25:49.201Z,1.08
2023-11-09T22:28:17.193Z,1.40
2023-11-09T22:30:45.115Z,1.20
2023-11-09T22:33:15.378Z,1.08
2023-11-09T22:35:44.049Z,1.00
2023-11-09T22:38:12.243Z,1.35
2023-11-09T22:40:41.647Z,1.00
2023-11-09T22:43:13.665Z,1.10
2023-11-09T22:45:41.574Z,0.73
2023-11-09T22:48:09.908Z,1.08
2023-11-09T22:50:38.240Z,0.80
2023-11-09T22:53:06.261Z,1.05
2023-11-09T22:55:34.175Z,1.63
2023-11-09T22:58:03.412Z,0.90
2023-11-09T23:00:38.578Z,1.05
2023-11-09T23:03:09.751Z,1.00
2023-11-09T23:05:38.133Z,1.70
2023-11-09T23:08:06.281Z,0.70
2023-11-09T23:10:34.395Z,0.57
2023-11-09T23:13:03.782Z,0.80
2023-11-09T23:15:32.638Z,0.85
2023-11-09T23:18:00.594Z,0.60
2023-11-09T23:20:28.522Z,0.55
2023-11-09T23:22:56.396Z,0.88
2023-11-09T23:25:24.676Z,0.65
2023-11-09T23:27:56.007Z,0.65
2023-11-09T23:30:25.583Z,0.65
2023-11-09T23:32:54.021Z,0.70
2023-11-09T23:35:22.180Z,0.70
2023-11-09T23:37:50.490Z,0.82
2023-11-09T23:40:18.581Z,0.80
2023-11-09T23:42:47.093Z,0.70
2023-11-09T23:45:15.618Z,0.90
2023-11-09T23:47:45.293Z,0.70
2023-11-09T23:50:14.019Z,0.70
2023-11-09T23:52:42.438Z,1.15
2023-11-09T23:55:11.175Z,0.70
2023-11-09T23:57:39.370Z,0.80
